Aviation Digital Data Service (ADDS)

Output produced by TAFs form (0440 UTC 28 July 2017)
found at http://www.aviationweather.gov/adds/tafs/
 
METAR text: EBBR 280420Z 23011KT 9999 FEW020 14/11 Q1010 NOSIG
Conditions at: EBBR (BRUSSELS NATIONA, BE) observed 0420 UTC 28 July 2017
Temperature: 14.0°C (57°F)
Dewpoint: 11.0°C (52°F) [RH = 82%]
Pressure (altimeter): 29.82 inches Hg (1010.0 mb)
Winds: from the SW (230 degrees) at 13 MPH (11 knots; 5.7 m/s)
Visibility: 6 or more miles (10+ km)
Ceiling: at least 12,000 feet AGL
Clouds: few clouds at 2000 feet AGL
Weather: no significant weather observed at this time

Forecast for: EBBR (BRUSSELS NATIONA, BE)
Text: TAF EBBR 272310Z 2800/2906 23010KT 9999 FEW025 SCT045
Forecast period: 0000 UTC 28 July 2017 to 0600 UTC 29 July 2017
Forecast type: FROM: standard forecast or significant change
Winds: from the SW (230 degrees) at 12 MPH (10 knots; 5.2 m/s)
Visibility: 6 or more miles (10+ km)
Clouds: few clouds at 2500 feet AGL
scattered clouds at 4500 feet AGL
Weather: no significant weather forecast for this period